sensor_id;sensor_type;location;lat;lon;timestamp;P1;durP1;ratioP1;P2;durP2;ratioP2
76409;SDS011;65238;42.662;23.280;2024-03-22T00:01:41;19.83;;;8.52;;
76409;SDS011;65238;42.662;23.280;2024-03-22T00:04:06;18.30;;;8.70;;
76409;SDS011;65238;42.662;23.280;2024-03-22T00:06:32;16.73;;;7.60;;
76409;SDS011;65238;42.662;23.280;2024-03-22T00:08:57;16.08;;;6.75;;
76409;SDS011;65238;42.662;23.280;2024-03-22T00:11:23;14.60;;;7.13;;
76409;SDS011;65238;42.662;23.280;2024-03-22T00:13:48;14.52;;;7.40;;
76409;SDS011;65238;42.662;23.280;2024-03-22T00:16:13;19.83;;;7.82;;
76409;SDS011;65238;42.662;23.280;2024-03-22T00:18:39;21.52;;;7.65;;
76409;SDS011;65238;42.662;23.280;2024-03-22T00:21:04;19.05;;;7.95;;
76409;SDS011;65238;42.662;23.280;2024-03-22T00:23:29;14.68;;;7.63;;
76409;SDS011;65238;42.662;23.280;2024-03-22T00:25:55;19.27;;;7.88;;
76409;SDS011;65238;42.662;23.280;2024-03-22T00:28:21;19.67;;;8.32;;
76409;SDS011;65238;42.662;23.280;2024-03-22T00:30:47;12.75;;;7.15;;
76409;SDS011;65238;42.662;23.280;2024-03-22T00:33:12;14.82;;;7.88;;
76409;SDS011;65238;42.662;23.280;2024-03-22T00:35:37;14.43;;;7.68;;
76409;SDS011;65238;42.662;23.280;2024-03-22T00:38:03;19.17;;;8.43;;
76409;SDS011;65238;42.662;23.280;2024-03-22T00:40:28;15.02;;;7.20;;
76409;SDS011;65238;42.662;23.280;2024-03-22T00:42:54;16.85;;;7.28;;
76409;SDS011;65238;42.662;23.280;2024-03-22T00:45:19;16.92;;;7.20;;
76409;SDS011;65238;42.662;23.280;2024-03-22T00:47:44;14.38;;;6.72;;
76409;SDS011;65238;42.662;23.280;2024-03-22T00:50:10;18.52;;;8.18;;
76409;SDS011;65238;42.662;23.280;2024-03-22T00:52:35;22.77;;;8.63;;
76409;SDS011;65238;42.662;23.280;2024-03-22T00:55:00;18.35;;;7.70;;
76409;SDS011;65238;42.662;23.280;2024-03-22T00:57:26;19.23;;;7.43;;
76409;SDS011;65238;42.662;23.280;2024-03-22T00:59:51;17.60;;;8.32;;
76409;SDS011;65238;42.662;23.280;2024-03-22T01:02:17;18.20;;;8.90;;
76409;SDS011;65238;42.662;23.280;2024-03-22T01:04:42;14.82;;;7.93;;
76409;SDS011;65238;42.662;23.280;2024-03-22T01:07:08;13.18;;;7.45;;
76409;SDS011;65238;42.662;23.280;2024-03-22T01:09:33;18.35;;;8.00;;
76409;SDS011;65238;42.662;23.280;2024-03-22T01:11:58;18.40;;;8.52;;
76409;SDS011;65238;42.662;23.280;2024-03-22T01:14:24;17.48;;;8.02;;
76409;SDS011;65238;42.662;23.280;2024-03-22T01:16:49;17.10;;;8.45;;
76409;SDS011;65238;42.662;23.280;2024-03-22T01:19:15;18.23;;;7.47;;
76409;SDS011;65238;42.662;23.280;2024-03-22T01:21:41;22.77;;;9.30;;
76409;SDS011;65238;42.662;23.280;2024-03-22T01:24:06;21.08;;;9.75;;
76409;SDS011;65238;42.662;23.280;2024-03-22T01:26:32;20.60;;;9.40;;
76409;SDS011;65238;42.662;23.280;2024-03-22T01:28:57;22.90;;;9.07;;
76409;SDS011;65238;42.662;23.280;2024-03-22T01:31:22;23.33;;;10.23;;
76409;SDS011;65238;42.662;23.280;2024-03-22T01:33:48;25.60;;;9.73;;
76409;SDS011;65238;42.662;23.280;2024-03-22T01:36:13;24.75;;;9.80;;
76409;SDS011;65238;42.662;23.280;2024-03-22T01:38:39;22.65;;;9.18;;
76409;SDS011;65238;42.662;23.280;2024-03-22T01:41:04;18.75;;;9.20;;
76409;SDS011;65238;42.662;23.280;2024-03-22T01:43:30;19.17;;;8.70;;
76409;SDS011;65238;42.662;23.280;2024-03-22T01:45:55;18.95;;;7.78;;
76409;SDS011;65238;42.662;23.280;2024-03-22T01:48:21;15.43;;;7.18;;
76409;SDS011;65238;42.662;23.280;2024-03-22T01:50:46;13.43;;;7.00;;
76409;SDS011;65238;42.662;23.280;2024-03-22T01:53:11;19.52;;;7.20;;
76409;SDS011;65238;42.662;23.280;2024-03-22T01:55:37;15.07;;;6.30;;
76409;SDS011;65238;42.662;23.280;2024-03-22T01:58:03;15.68;;;6.15;;
76409;SDS011;65238;42.662;23.280;2024-03-22T02:00:29;13.57;;;5.88;;
76409;SDS011;65238;42.662;23.280;2024-03-22T02:02:55;17.05;;;6.70;;
76409;SDS011;65238;42.662;23.280;2024-03-22T02:05:21;13.88;;;6.13;;
76409;SDS011;65238;42.662;23.280;2024-03-22T02:07:46;13.90;;;6.35;;
76409;SDS011;65238;42.662;23.280;2024-03-22T02:10:13;13.13;;;6.45;;
76409;SDS011;65238;42.662;23.280;2024-03-22T02:12:38;15.52;;;6.95;;
76409;SDS011;65238;42.662;23.280;2024-03-22T02:15:04;14.07;;;6.57;;
76409;SDS011;65238;42.662;23.280;2024-03-22T02:17:31;14.57;;;7.13;;
76409;SDS011;65238;42.662;23.280;2024-03-22T02:19:56;14.40;;;6.93;;
76409;SDS011;65238;42.662;23.280;2024-03-22T02:22:22;14.73;;;6.75;;
76409;SDS011;65238;42.662;23.280;2024-03-22T02:24:47;13.45;;;6.90;;
76409;SDS011;65238;42.662;23.280;2024-03-22T02:27:13;12.55;;;6.55;;
76409;SDS011;65238;42.662;23.280;2024-03-22T02:29:38;12.70;;;5.97;;
76409;SDS011;65238;42.662;23.280;2024-03-22T02:32:03;14.50;;;6.13;;
76409;SDS011;65238;42.662;23.280;2024-03-22T02:34:29;11.25;;;5.65;;
76409;SDS011;65238;42.662;23.280;2024-03-22T02:36:55;11.45;;;6.25;;
76409;SDS011;65238;42.662;23.280;2024-03-22T02:39:20;12.43;;;5.75;;
76409;SDS011;65238;42.662;23.280;2024-03-22T02:41:45;11.10;;;5.53;;
76409;SDS011;65238;42.662;23.280;2024-03-22T02:44:11;12.45;;;5.47;;
76409;SDS011;65238;42.662;23.280;2024-03-22T02:46:36;11.65;;;6.28;;
76409;SDS011;65238;42.662;23.280;2024-03-22T02:49:01;16.83;;;6.47;;
76409;SDS011;65238;42.662;23.280;2024-03-22T02:51:27;13.57;;;6.55;;
76409;SDS011;65238;42.662;23.280;2024-03-22T02:53:52;19.75;;;7.55;;
76409;SDS011;65238;42.662;23.280;2024-03-22T02:56:18;18.13;;;7.80;;
76409;SDS011;65238;42.662;23.280;2024-03-22T02:58:43;20.10;;;8.18;;
76409;SDS011;65238;42.662;23.280;2024-03-22T03:01:09;156.95;;;57.22;;
76409;SDS011;65238;42.662;23.280;2024-03-22T03:03:34;76.88;;;32.78;;
76409;SDS011;65238;42.662;23.280;2024-03-22T03:05:59;57.08;;;24.80;;
76409;SDS011;65238;42.662;23.280;2024-03-22T03:08:25;39.97;;;19.10;;
76409;SDS011;65238;42.662;23.280;2024-03-22T03:10:50;34.00;;;14.68;;
76409;SDS011;65238;42.662;23.280;2024-03-22T03:13:16;26.38;;;13.38;;
76409;SDS011;65238;42.662;23.280;2024-03-22T03:15:41;28.17;;;11.68;;
76409;SDS011;65238;42.662;23.280;2024-03-22T03:18:06;23.35;;;10.40;;
76409;SDS011;65238;42.662;23.280;2024-03-22T03:20:32;19.50;;;9.82;;
76409;SDS011;65238;42.662;23.280;2024-03-22T03:22:57;19.40;;;9.00;;
76409;SDS011;65238;42.662;23.280;2024-03-22T03:25:25;20.95;;;9.65;;
76409;SDS011;65238;42.662;23.280;2024-03-22T03:27:51;16.17;;;7.68;;
76409;SDS011;65238;42.662;23.280;2024-03-22T03:30:16;16.50;;;9.02;;
76409;SDS011;65238;42.662;23.280;2024-03-22T03:32:42;15.38;;;8.32;;
76409;SDS011;65238;42.662;23.280;2024-03-22T03:35:07;16.98;;;8.70;;
76409;SDS011;65238;42.662;23.280;2024-03-22T03:37:33;16.50;;;8.73;;
76409;SDS011;65238;42.662;23.280;2024-03-22T03:39:58;21.02;;;8.25;;
76409;SDS011;65238;42.662;23.280;2024-03-22T03:42:24;20.60;;;8.65;;
76409;SDS011;65238;42.662;23.280;2024-03-22T03:44:49;23.85;;;9.50;;
76409;SDS011;65238;42.662;23.280;2024-03-22T03:47:15;22.35;;;10.02;;
76409;SDS011;65238;42.662;23.280;2024-03-22T03:49:40;29.17;;;11.68;;
76409;SDS011;65238;42.662;23.280;2024-03-22T03:52:05;27.10;;;10.75;;
76409;SDS011;65238;42.662;23.280;2024-03-22T03:54:31;21.40;;;10.02;;
76409;SDS011;65238;42.662;23.280;2024-03-22T03:56:56;19.42;;;10.23;;
76409;SDS011;65238;42.662;23.280;2024-03-22T03:59:22;21.25;;;10.85;;
76409;SDS011;65238;42.662;23.280;2024-03-22T04:01:47;26.48;;;11.43;;
76409;SDS011;65238;42.662;23.280;2024-03-22T04:04:13;28.30;;;13.23;;
76409;SDS011;65238;42.662;23.280;2024-03-22T04:06:38;24.95;;;12.93;;
76409;SDS011;65238;42.662;23.280;2024-03-22T04:09:04;27.38;;;13.75;;
76409;SDS011;65238;42.662;23.280;2024-03-22T04:11:30;31.83;;;14.20;;
76409;SDS011;65238;42.662;23.280;2024-03-22T04:13:55;31.25;;;13.73;;
76409;SDS011;65238;42.662;23.280;2024-03-22T04:16:21;32.72;;;14.68;;
76409;SDS011;65238;42.662;23.280;2024-03-22T04:18:46;34.28;;;14.35;;
76409;SDS011;65238;42.662;23.280;2024-03-22T04:21:11;33.28;;;14.25;;
76409;SDS011;65238;42.662;23.280;2024-03-22T04:23:37;32.88;;;13.90;;
76409;SDS011;65238;42.662;23.280;2024-03-22T04:26:02;28.63;;;12.27;;
76409;SDS011;65238;42.662;23.280;2024-03-22T04:28:28;24.05;;;12.13;;
76409;SDS011;65238;42.662;23.280;2024-03-22T04:30:55;25.83;;;12.18;;
76409;SDS011;65238;42.662;23.280;2024-03-22T04:33:23;25.67;;;11.13;;
76409;SDS011;65238;42.662;23.280;2024-03-22T04:35:49;26.40;;;10.90;;
76409;SDS011;65238;42.662;23.280;2024-03-22T04:38:14;27.17;;;10.43;;
76409;SDS011;65238;42.662;23.280;2024-03-22T04:40:40;20.70;;;10.38;;
76409;SDS011;65238;42.662;23.280;2024-03-22T04:43:06;27.65;;;11.10;;
76409;SDS011;65238;42.662;23.280;2024-03-22T04:45:33;27.52;;;11.18;;
76409;SDS011;65238;42.662;23.280;2024-03-22T04:47:58;23.33;;;11.63;;
76409;SDS011;65238;42.662;23.280;2024-03-22T04:50:24;24.42;;;11.80;;
76409;SDS011;65238;42.662;23.280;2024-03-22T04:52:49;31.10;;;12.93;;
76409;SDS011;65238;42.662;23.280;2024-03-22T04:55:14;28.98;;;11.52;;
76409;SDS011;65238;42.662;23.280;2024-03-22T04:57:40;28.35;;;12.57;;
76409;SDS011;65238;42.662;23.280;2024-03-22T05:00:05;26.55;;;11.48;;
76409;SDS011;65238;42.662;23.280;2024-03-22T05:02:34;27.50;;;12.10;;
76409;SDS011;65238;42.662;23.280;2024-03-22T05:04:59;29.80;;;11.93;;
76409;SDS011;65238;42.662;23.280;2024-03-22T05:07:25;37.22;;;13.15;;
76409;SDS011;65238;42.662;23.280;2024-03-22T05:09:51;24.50;;;11.43;;
76409;SDS011;65238;42.662;23.280;2024-03-22T05:12:16;28.83;;;11.80;;
76409;SDS011;65238;42.662;23.280;2024-03-22T05:14:42;30.05;;;11.75;;
76409;SDS011;65238;42.662;23.280;2024-03-22T05:17:07;35.97;;;13.82;;
76409;SDS011;65238;42.662;23.280;2024-03-22T05:19:33;37.47;;;14.00;;
76409;SDS011;65238;42.662;23.280;2024-03-22T05:21:58;41.78;;;20.50;;
76409;SDS011;65238;42.662;23.280;2024-03-22T05:24:25;39.28;;;18.55;;
76409;SDS011;65238;42.662;23.280;2024-03-22T05:26:51;42.50;;;15.60;;
76409;SDS011;65238;42.662;23.280;2024-03-22T05:29:16;26.92;;;13.50;;
76409;SDS011;65238;42.662;23.280;2024-03-22T05:31:48;37.13;;;13.82;;
76409;SDS011;65238;42.662;23.280;2024-03-22T05:34:16;26.65;;;13.88;;
76409;SDS011;65238;42.662;23.280;2024-03-22T05:36:41;35.85;;;15.38;;
76409;SDS011;65238;42.662;23.280;2024-03-22T05:39:07;30.75;;;14.45;;
76409;SDS011;65238;42.662;23.280;2024-03-22T05:41:33;32.30;;;14.13;;
76409;SDS011;65238;42.662;23.280;2024-03-22T05:43:59;25.80;;;13.85;;
76409;SDS011;65238;42.662;23.280;2024-03-22T05:46:24;32.65;;;14.60;;
76409;SDS011;65238;42.662;23.280;2024-03-22T05:48:49;35.58;;;15.15;;
76409;SDS011;65238;42.662;23.280;2024-03-22T05:51:17;39.15;;;15.32;;
76409;SDS011;65238;42.662;23.280;2024-03-22T05:53:42;26.13;;;13.43;;
76409;SDS011;65238;42.662;23.280;2024-03-22T05:56:08;38.25;;;15.85;;
76409;SDS011;65238;42.662;23.280;2024-03-22T05:58:34;31.95;;;13.07;;
76409;SDS011;65238;42.662;23.280;2024-03-22T06:01:01;24.48;;;11.85;;
76409;SDS011;65238;42.662;23.280;2024-03-22T06:03:26;25.85;;;11.32;;
76409;SDS011;65238;42.662;23.280;2024-03-22T06:05:52;27.90;;;12.70;;
76409;SDS011;65238;42.662;23.280;2024-03-22T06:08:21;32.78;;;14.27;;
76409;SDS011;65238;42.662;23.280;2024-03-22T06:10:48;27.80;;;13.00;;
76409;SDS011;65238;42.662;23.280;2024-03-22T06:13:13;29.70;;;13.88;;
76409;SDS011;65238;42.662;23.280;2024-03-22T06:15:40;25.92;;;12.45;;
76409;SDS011;65238;42.662;23.280;2024-03-22T06:18:09;24.02;;;11.23;;
76409;SDS011;65238;42.662;23.280;2024-03-22T06:20:35;22.45;;;9.73;;
76409;SDS011;65238;42.662;23.280;2024-03-22T06:23:00;19.45;;;9.38;;
76409;SDS011;65238;42.662;23.280;2024-03-22T06:25:26;18.95;;;10.40;;
76409;SDS011;65238;42.662;23.280;2024-03-22T06:27:52;18.58;;;9.93;;
76409;SDS011;65238;42.662;23.280;2024-03-22T06:30:17;20.67;;;9.45;;
76409;SDS011;65238;42.662;23.280;2024-03-22T06:32:42;15.98;;;9.05;;
76409;SDS011;65238;42.662;23.280;2024-03-22T06:35:08;16.48;;;8.73;;
76409;SDS011;65238;42.662;23.280;2024-03-22T06:37:33;22.27;;;10.18;;
76409;SDS011;65238;42.662;23.280;2024-03-22T06:39:59;26.05;;;9.98;;
76409;SDS011;65238;42.662;23.280;2024-03-22T06:42:24;23.05;;;9.88;;
76409;SDS011;65238;42.662;23.280;2024-03-22T06:44:51;20.48;;;9.55;;
76409;SDS011;65238;42.662;23.280;2024-03-22T06:47:17;22.75;;;9.68;;
76409;SDS011;65238;42.662;23.280;2024-03-22T06:49:42;21.70;;;9.18;;
76409;SDS011;65238;42.662;23.280;2024-03-22T06:52:08;16.45;;;9.48;;
76409;SDS011;65238;42.662;23.280;2024-03-22T06:54:33;21.65;;;9.88;;
76409;SDS011;65238;42.662;23.280;2024-03-22T06:56:59;21.27;;;10.18;;
76409;SDS011;65238;42.662;23.280;2024-03-22T06:59:24;16.23;;;8.52;;
76409;SDS011;65238;42.662;23.280;2024-03-22T07:01:50;16.73;;;9.55;;
76409;SDS011;65238;42.662;23.280;2024-03-22T07:04:15;21.33;;;9.65;;
76409;SDS011;65238;42.662;23.280;2024-03-22T07:06:40;18.23;;;9.40;;
76409;SDS011;65238;42.662;23.280;2024-03-22T07:09:07;17.10;;;9.23;;
76409;SDS011;65238;42.662;23.280;2024-03-22T07:11:33;18.77;;;9.52;;
76409;SDS011;65238;42.662;23.280;2024-03-22T07:13:58;19.38;;;8.82;;
76409;SDS011;65238;42.662;23.280;2024-03-22T07:16:23;14.90;;;8.55;;
76409;SDS011;65238;42.662;23.280;2024-03-22T07:18:49;18.48;;;9.30;;
76409;SDS011;65238;42.662;23.280;2024-03-22T07:21:15;16.83;;;9.52;;
76409;SDS011;65238;42.662;23.280;2024-03-22T07:23:41;23.02;;;10.02;;
76409;SDS011;65238;42.662;23.280;2024-03-22T07:26:07;20.73;;;9.65;;
76409;SDS011;65238;42.662;23.280;2024-03-22T07:28:33;16.48;;;9.75;;
76409;SDS011;65238;42.662;23.280;2024-03-22T07:30:59;15.18;;;8.90;;
76409;SDS011;65238;42.662;23.280;2024-03-22T07:33:24;21.67;;;8.63;;
76409;SDS011;65238;42.662;23.280;2024-03-22T07:35:49;16.80;;;9.00;;
76409;SDS011;65238;42.662;23.280;2024-03-22T07:38:15;17.38;;;8.82;;
76409;SDS011;65238;42.662;23.280;2024-03-22T07:40:41;16.25;;;9.52;;
76409;SDS011;65238;42.662;23.280;2024-03-22T07:43:06;20.48;;;9.00;;
76409;SDS011;65238;42.662;23.280;2024-03-22T07:45:33;17.08;;;9.52;;
76409;SDS011;65238;42.662;23.280;2024-03-22T07:47:59;18.60;;;9.40;;
76409;SDS011;65238;42.662;23.280;2024-03-22T07:50:24;19.95;;;9.15;;
76409;SDS011;65238;42.662;23.280;2024-03-22T07:52:50;20.52;;;10.95;;
76409;SDS011;65238;42.662;23.280;2024-03-22T07:55:15;17.67;;;9.60;;
76409;SDS011;65238;42.662;23.280;2024-03-22T07:57:41;21.55;;;9.98;;
76409;SDS011;65238;42.662;23.280;2024-03-22T08:00:06;17.20;;;9.38;;
76409;SDS011;65238;42.662;23.280;2024-03-22T08:02:33;21.33;;;10.52;;
76409;SDS011;65238;42.662;23.280;2024-03-22T08:04:58;15.45;;;7.78;;
76409;SDS011;65238;42.662;23.280;2024-03-22T08:07:23;11.48;;;6.60;;
76409;SDS011;65238;42.662;23.280;2024-03-22T08:09:49;12.27;;;6.82;;
76409;SDS011;65238;42.662;23.280;2024-03-22T08:12:15;10.35;;;6.57;;
76409;SDS011;65238;42.662;23.280;2024-03-22T08:14:41;9.68;;;5.82;;
76409;SDS011;65238;42.662;23.280;2024-03-22T08:17:07;11.20;;;6.32;;
76409;SDS011;65238;42.662;23.280;2024-03-22T08:19:34;10.02;;;6.00;;
76409;SDS011;65238;42.662;23.280;2024-03-22T08:22:00;10.27;;;6.13;;
76409;SDS011;65238;42.662;23.280;2024-03-22T08:24:25;9.90;;;5.57;;
76409;SDS011;65238;42.662;23.280;2024-03-22T08:26:51;11.65;;;5.32;;
76409;SDS011;65238;42.662;23.280;2024-03-22T08:29:16;8.45;;;5.45;;
76409;SDS011;65238;42.662;23.280;2024-03-22T08:31:41;14.40;;;5.75;;
76409;SDS011;65238;42.662;23.280;2024-03-22T08:34:07;8.10;;;4.90;;
76409;SDS011;65238;42.662;23.280;2024-03-22T08:36:33;7.82;;;4.63;;
76409;SDS011;65238;42.662;23.280;2024-03-22T08:38:58;7.80;;;4.80;;
76409;SDS011;65238;42.662;23.280;2024-03-22T08:41:24;7.93;;;4.90;;
76409;SDS011;65238;42.662;23.280;2024-03-22T08:43:49;10.55;;;5.25;;
76409;SDS011;65238;42.662;23.280;2024-03-22T08:46:14;10.15;;;5.43;;
76409;SDS011;65238;42.662;23.280;2024-03-22T08:48:40;10.00;;;5.35;;
76409;SDS011;65238;42.662;23.280;2024-03-22T08:51:06;7.25;;;4.85;;
76409;SDS011;65238;42.662;23.280;2024-03-22T08:53:31;9.85;;;4.93;;
76409;SDS011;65238;42.662;23.280;2024-03-22T08:55:56;7.88;;;4.50;;
76409;SDS011;65238;42.662;23.280;2024-03-22T08:58:22;5.55;;;4.00;;
76409;SDS011;65238;42.662;23.280;2024-03-22T09:00:47;7.10;;;4.43;;
76409;SDS011;65238;42.662;23.280;2024-03-22T09:03:13;8.93;;;4.03;;
76409;SDS011;65238;42.662;23.280;2024-03-22T09:05:40;8.10;;;4.03;;
76409;SDS011;65238;42.662;23.280;2024-03-22T09:08:06;8.55;;;4.47;;
76409;SDS011;65238;42.662;23.280;2024-03-22T09:10:31;7.50;;;3.92;;
76409;SDS011;65238;42.662;23.280;2024-03-22T09:12:57;4.75;;;3.50;;
76409;SDS011;65238;42.662;23.280;2024-03-22T09:15:25;7.93;;;4.00;;
76409;SDS011;65238;42.662;23.280;2024-03-22T09:17:54;7.97;;;4.20;;
76409;SDS011;65238;42.662;23.280;2024-03-22T09:20:19;6.97;;;4.10;;
76409;SDS011;65238;42.662;23.280;2024-03-22T09:22:45;7.07;;;4.03;;
76409;SDS011;65238;42.662;23.280;2024-03-22T09:25:11;6.65;;;3.22;;
76409;SDS011;65238;42.662;23.280;2024-03-22T09:27:36;8.10;;;3.97;;
76409;SDS011;65238;42.662;23.280;2024-03-22T09:30:02;8.30;;;4.28;;
76409;SDS011;65238;42.662;23.280;2024-03-22T09:32:29;9.18;;;3.67;;
76409;SDS011;65238;42.662;23.280;2024-03-22T09:34:54;6.35;;;3.47;;
76409;SDS011;65238;42.662;23.280;2024-03-22T09:37:20;7.60;;;4.07;;
76409;SDS011;65238;42.662;23.280;2024-03-22T09:39:45;6.93;;;4.15;;
76409;SDS011;65238;42.662;23.280;2024-03-22T09:42:13;7.43;;;4.50;;
76409;SDS011;65238;42.662;23.280;2024-03-22T09:44:43;8.60;;;4.35;;
76409;SDS011;65238;42.662;23.280;2024-03-22T09:47:13;6.28;;;3.92;;
76409;SDS011;65238;42.662;23.280;2024-03-22T09:49:40;8.63;;;4.50;;
76409;SDS011;65238;42.662;23.280;2024-03-22T09:52:08;9.43;;;3.88;;
76409;SDS011;65238;42.662;23.280;2024-03-22T09:54:34;6.22;;;3.88;;
76409;SDS011;65238;42.662;23.280;2024-03-22T09:56:59;8.07;;;3.60;;
76409;SDS011;65238;42.662;23.280;2024-03-22T09:59:26;5.65;;;3.53;;
76409;SDS011;65238;42.662;23.280;2024-03-22T10:01:51;10.15;;;5.78;;
76409;SDS011;65238;42.662;23.280;2024-03-22T10:04:18;6.30;;;4.30;;
76409;SDS011;65238;42.662;23.280;2024-03-22T10:06:45;4.85;;;3.60;;
76409;SDS011;65238;42.662;23.280;2024-03-22T10:09:12;7.47;;;3.80;;
76409;SDS011;65238;42.662;23.280;2024-03-22T10:11:38;6.90;;;3.88;;
76409;SDS011;65238;42.662;23.280;2024-03-22T10:14:03;6.78;;;3.95;;
76409;SDS011;65238;42.662;23.280;2024-03-22T10:16:39;5.40;;;3.78;;
76409;SDS011;65238;42.662;23.280;2024-03-22T10:19:04;6.00;;;3.25;;
76409;SDS011;65238;42.662;23.280;2024-03-22T10:21:29;7.13;;;3.65;;
76409;SDS011;65238;42.662;23.280;2024-03-22T10:23:56;8.52;;;4.05;;
76409;SDS011;65238;42.662;23.280;2024-03-22T10:26:21;6.90;;;4.20;;
76409;SDS011;65238;42.662;23.280;2024-03-22T10:28:47;6.22;;;3.58;;
76409;SDS011;65238;42.662;23.280;2024-03-22T10:31:13;6.50;;;3.22;;
76409;SDS011;65238;42.662;23.280;2024-03-22T10:33:40;6.55;;;3.53;;
76409;SDS011;65238;42.662;23.280;2024-03-22T10:36:06;7.53;;;3.20;;
76409;SDS011;65238;42.662;23.280;2024-03-22T10:38:32;5.32;;;3.90;;
76409;SDS011;65238;42.662;23.280;2024-03-22T10:40:58;9.48;;;4.05;;
76409;SDS011;65238;42.662;23.280;2024-03-22T10:43:24;4.95;;;3.67;;
76409;SDS011;65238;42.662;23.280;2024-03-22T10:45:49;7.47;;;3.58;;
76409;SDS011;65238;42.662;23.280;2024-03-22T10:48:16;5.28;;;2.72;;
76409;SDS011;65238;42.662;23.280;2024-03-22T10:50:43;5.45;;;3.10;;
76409;SDS011;65238;42.662;23.280;2024-03-22T10:53:09;10.57;;;3.42;;
76409;SDS011;65238;42.662;23.280;2024-03-22T10:55:42;5.30;;;3.83;;
76409;SDS011;65238;42.662;23.280;2024-03-22T10:58:18;7.57;;;3.95;;
76409;SDS011;65238;42.662;23.280;2024-03-22T11:00:46;6.30;;;4.30;;
76409;SDS011;65238;42.662;23.280;2024-03-22T11:03:12;8.43;;;4.13;;
76409;SDS011;65238;42.662;23.280;2024-03-22T11:05:47;10.45;;;4.20;;
76409;SDS011;65238;42.662;23.280;2024-03-22T11:08:23;9.85;;;3.45;;
76409;SDS011;65238;42.662;23.280;2024-03-22T11:10:52;5.95;;;3.60;;
76409;SDS011;65238;42.662;23.280;2024-03-22T11:13:18;7.68;;;3.33;;
76409;SDS011;65238;42.662;23.280;2024-03-22T11:15:43;5.68;;;3.20;;
76409;SDS011;65238;42.662;23.280;2024-03-22T11:18:09;8.43;;;4.07;;
76409;SDS011;65238;42.662;23.280;2024-03-22T11:20:38;5.38;;;3.65;;
76409;SDS011;65238;42.662;23.280;2024-03-22T11:23:04;7.15;;;3.75;;
76409;SDS011;65238;42.662;23.280;2024-03-22T11:25:33;5.82;;;3.00;;
76409;SDS011;65238;42.662;23.280;2024-03-22T11:27:59;7.00;;;3.80;;
76409;SDS011;65238;42.662;23.280;2024-03-22T11:30:26;5.80;;;3.75;;
76409;SDS011;65238;42.662;23.280;2024-03-22T11:32:51;8.25;;;4.57;;
76409;SDS011;65238;42.662;23.280;2024-03-22T11:35:19;5.32;;;3.53;;
76409;SDS011;65238;42.662;23.280;2024-03-22T11:37:44;6.88;;;3.67;;
76409;SDS011;65238;42.662;23.280;2024-03-22T11:40:10;5.75;;;3.35;;
76409;SDS011;65238;42.662;23.280;2024-03-22T11:42:39;6.18;;;3.80;;
76409;SDS011;65238;42.662;23.280;2024-03-22T11:45:07;5.80;;;3.92;;
76409;SDS011;65238;42.662;23.280;2024-03-22T11:47:34;5.25;;;3.60;;
76409;SDS011;65238;42.662;23.280;2024-03-22T11:49:59;5.28;;;3.65;;
76409;SDS011;65238;42.662;23.280;2024-03-22T11:52:25;6.78;;;3.95;;
76409;SDS011;65238;42.662;23.280;2024-03-22T11:54:51;4.75;;;3.42;;
76409;SDS011;65238;42.662;23.280;2024-03-22T11:57:23;8.85;;;3.67;;
76409;SDS011;65238;42.662;23.280;2024-03-22T11:59:49;6.50;;;3.85;;
76409;SDS011;65238;42.662;23.280;2024-03-22T12:02:15;9.80;;;3.83;;
76409;SDS011;65238;42.662;23.280;2024-03-22T12:04:41;5.28;;;3.10;;
76409;SDS011;65238;42.662;23.280;2024-03-22T12:07:14;6.60;;;3.55;;
76409;SDS011;65238;42.662;23.280;2024-03-22T12:09:41;7.32;;;3.35;;
76409;SDS011;65238;42.662;23.280;2024-03-22T12:12:07;5.15;;;3.33;;
76409;SDS011;65238;42.662;23.280;2024-03-22T12:14:33;7.95;;;3.20;;
76409;SDS011;65238;42.662;23.280;2024-03-22T12:16:59;6.50;;;3.22;;
76409;SDS011;65238;42.662;23.280;2024-03-22T12:19:25;5.20;;;3.35;;
76409;SDS011;65238;42.662;23.280;2024-03-22T12:21:50;7.65;;;3.70;;
76409;SDS011;65238;42.662;23.280;2024-03-22T12:24:16;7.45;;;2.63;;
76409;SDS011;65238;42.662;23.280;2024-03-22T12:26:41;6.70;;;3.35;;
76409;SDS011;65238;42.662;23.280;2024-03-22T12:29:06;8.27;;;3.55;;
76409;SDS011;65238;42.662;23.280;2024-03-22T12:31:32;6.07;;;3.40;;
76409;SDS011;65238;42.662;23.280;2024-03-22T12:33:58;7.15;;;4.20;;
76409;SDS011;65238;42.662;23.280;2024-03-22T12:36:24;7.00;;;3.38;;
76409;SDS011;65238;42.662;23.280;2024-03-22T12:38:49;7.18;;;4.10;;
76409;SDS011;65238;42.662;23.280;2024-03-22T12:41:14;5.28;;;3.50;;
76409;SDS011;65238;42.662;23.280;2024-03-22T12:43:40;7.05;;;3.63;;
76409;SDS011;65238;42.662;23.280;2024-03-22T12:46:07;5.72;;;3.88;;
76409;SDS011;65238;42.662;23.280;2024-03-22T12:48:33;6.82;;;3.50;;
76409;SDS011;65238;42.662;23.280;2024-03-22T12:50:59;5.53;;;2.88;;
76409;SDS011;65238;42.662;23.280;2024-03-22T12:53:25;5.18;;;3.55;;
76409;SDS011;65238;42.662;23.280;2024-03-22T12:55:50;4.97;;;3.50;;
76409;SDS011;65238;42.662;23.280;2024-03-22T12:58:16;6.32;;;3.90;;
76409;SDS011;65238;42.662;23.280;2024-03-22T13:00:41;4.75;;;3.20;;
76409;SDS011;65238;42.662;23.280;2024-03-22T13:03:06;5.70;;;3.22;;
76409;SDS011;65238;42.662;23.280;2024-03-22T13:05:32;4.50;;;2.85;;
76409;SDS011;65238;42.662;23.280;2024-03-22T13:07:57;8.50;;;3.65;;
76409;SDS011;65238;42.662;23.280;2024-03-22T13:10:22;5.85;;;3.47;;
76409;SDS011;65238;42.662;23.280;2024-03-22T13:12:48;4.57;;;3.20;;
76409;SDS011;65238;42.662;23.280;2024-03-22T13:15:13;5.28;;;3.53;;
76409;SDS011;65238;42.662;23.280;2024-03-22T13:17:39;10.15;;;3.45;;
76409;SDS011;65238;42.662;23.280;2024-03-22T13:20:05;8.27;;;3.80;;
76409;SDS011;65238;42.662;23.280;2024-03-22T13:22:36;7.15;;;3.08;;
76409;SDS011;65238;42.662;23.280;2024-03-22T13:25:02;11.23;;;3.70;;
76409;SDS011;65238;42.662;23.280;2024-03-22T13:27:31;5.35;;;3.60;;
76409;SDS011;65238;42.662;23.280;2024-03-22T13:29:56;5.25;;;3.60;;
76409;SDS011;65238;42.662;23.280;2024-03-22T13:32:22;5.45;;;3.47;;
76409;SDS011;65238;42.662;23.280;2024-03-22T13:34:47;6.78;;;4.03;;
76409;SDS011;65238;42.662;23.280;2024-03-22T13:37:13;5.03;;;3.58;;
76409;SDS011;65238;42.662;23.280;2024-03-22T13:39:38;4.55;;;3.30;;
76409;SDS011;65238;42.662;23.280;2024-03-22T13:42:04;5.72;;;3.78;;
76409;SDS011;65238;42.662;23.280;2024-03-22T13:44:31;4.53;;;3.42;;
76409;SDS011;65238;42.662;23.280;2024-03-22T13:46:57;7.97;;;3.50;;
76409;SDS011;65238;42.662;23.280;2024-03-22T13:49:23;7.43;;;3.50;;
76409;SDS011;65238;42.662;23.280;2024-03-22T13:51:48;6.15;;;3.50;;
76409;SDS011;65238;42.662;23.280;2024-03-22T13:54:14;8.93;;;3.78;;
76409;SDS011;65238;42.662;23.280;2024-03-22T13:56:40;7.57;;;3.53;;
76409;SDS011;65238;42.662;23.280;2024-03-22T13:59:06;6.50;;;3.42;;
76409;SDS011;65238;42.662;23.280;2024-03-22T14:01:33;7.28;;;3.90;;
76409;SDS011;65238;42.662;23.280;2024-03-22T14:03:59;5.60;;;3.60;;
76409;SDS011;65238;42.662;23.280;2024-03-22T14:06:25;6.78;;;3.50;;
76409;SDS011;65238;42.662;23.280;2024-03-22T14:08:50;6.63;;;3.33;;
76409;SDS011;65238;42.662;23.280;2024-03-22T14:11:19;4.95;;;3.10;;
76409;SDS011;65238;42.662;23.280;2024-03-22T14:13:44;8.60;;;3.55;;
76409;SDS011;65238;42.662;23.280;2024-03-22T14:16:10;5.93;;;4.07;;